LFPBLSZA

Guest
Details From LFPB - Paris Le Bourget
To LSZA - Lugano
Flight Number -
Tags Generated
Created
Modified
Stats Distance 317 nm / 587 km
Max Altitude 0 ft / 0 m
Waypoints 3
Social Downloads 3
Likes 0
Share VATSIM

Download

Looking for another format? Having issues loading an existing format? Contact us
Advertisement - Login to hide

Notes

Generated

Route

LFPB ODINA LSZA

ID Type Via Altitude Latitude Longitude Leg Dist Tot Dist Heading (true) Name
O LFPB APT - 0 ft / 0 m 48.94997˚ 2.42850˚ - 0 nm - -
ODINA FIX - 0 ft / 0 m 46.10444˚ 8.66500˚ 305 nm 305 nm 122° / 126° -
O LSZA APT - 0 ft / 0 m 45.99853˚ 8.90776˚ 11 nm 317 nm 122° / 122° Lugano

Altitude Profile

Advertisement - Login to hide

Weather


0- 5 10 15 20 25 30 35+ Temperature / ° C

Clouds and Precipitation
Forecast for 2017-12-18 06:00 UTC. Updated 26 minutes ago

Ground ~20,000 ft ~40,000 ft Winds

LFPB

Details ICAO LFPB (LBG)
Name Paris Le Bourget
Region France
Timezone Europe/Paris (UTC+1.0)
Stats Elevation 218 ft / 66 m (AMSL)
Location 48.964314° 2.435563°
Runways 3
Magnetic Variation 0.607° E

METAR

LFPB 180130Z AUTO 24009KT 3900 -RADZ BR OVC007 07/07 Q1021 TEMPO 2000 -DZ BR BKN003

Decode

TAF

TAF TAF LFPB 172300Z 1800/1824 21010KT 4000 -RA BR BKN005 PROB40 TEMPO 1800/1806 2000 -DZ BR BKN003 BECMG 1805/1807 8000 BKN007 BECMG 1807/1809 35012KT BKN017 BECMG 1820/1822 3000 BR BKN007

Decode

Departure Runways

ID Width Length Bearing (true) Bearing (mag) Surface Threshold Offset Overrun Length
03 197 ft / 60 m 8,752 ft / 2,668 m 24.59° 23.98° Asphalt 0 ft / 0 m 0 ft / 0 m
07 180 ft / 55 m 9,853 ft / 3,003 m 67.59° 66.98° Concrete 984 ft / 300 m 0 ft / 0 m
09 148 ft / 45 m 6,059 ft / 1,847 m 85.09° 84.48° Asphalt 0 ft / 0 m 0 ft / 0 m
21 197 ft / 60 m 8,752 ft / 2,668 m 204.61° 204.00° Asphalt 0 ft / 0 m 0 ft / 0 m
25 180 ft / 55 m 9,853 ft / 3,003 m 247.61° 247.00° Concrete 2,956 ft / 901 m 0 ft / 0 m
27 148 ft / 45 m 6,059 ft / 1,847 m 265.11° 264.50° Asphalt 0 ft / 0 m 1,050 ft / 320 m

LSZA

Details ICAO LSZA (LUG)
Name Lugano
Region Switzerland
Timezone Europe/Zurich (UTC+1.0)
Stats Elevation 915 ft / 279 m (AMSL)
Location 46.004275° 8.910579°
Runways 1
Magnetic Variation 2.425° E

METAR

LSZA 180120Z AUTO 03006KT 350V080 9999 NSC 04/M12 Q1024

Decode

TAF

Not found

Destination Runways

ID Width Length Bearing (true) Bearing (mag) Surface Threshold Offset Overrun Length
01 98 ft / 30 m 4,430 ft / 1,350 m 18.79° 16.37° Asphalt 361 ft / 110 m 0 ft / 0 m
19 98 ft / 30 m 4,430 ft / 1,350 m 198.79° 196.37° Asphalt 673 ft / 205 m 0 ft / 0 m

Approach Navaids

Runway Type Ident Frequency Range Bearing (true) Bearing (mag) Slope Elevation
01 Localiser ILU 111.50 MHz 18 nm / 33 km 18.79° 16.37° - 928 ft / 283 m (AMSL)
01 Glidescope ILU 111.50 MHz 10 nm / 19 km 19.99° 17.57° 6.00° 928 ft / 283 m (AMSL)
01 DME ILU 111.50 MHz 18 nm / 33 km - - - 928 ft / 283 m (AMSL)

Popular Alternatives